Latest Weather Observations for Oakey

IDQ60801

Issued at 1:52 pm EST Thursday 25 April 2019 (issued every 10 minutes, with the page automatically refreshed every 10 minutes)

About weather observations | Map of weather stations | Latest weather observations for QLD | Other Formats
Station Details ID: 041359 Name: OAKEY AERO Lat: -27.40 Lon: 151.74 Height: 405.69 m
Data from the previous 72 hours. | See also: Recent months at Oakey
Date/Time
EST
Temp
°C
App
Temp
°C
Dew
Point
°C
Rel
Hum
%
Delta-T
°C
Wind Press
QNH
hPa
Press
MSL
hPa
Rain since
9am
mm
Dir  Spd
km/h
Gust
km/h
Spd
kts
Gust
kts
25/01:30pm 25.3 23.8 14.1 50 6.7 ENE 15 24 8 13 1018.6 1017.2 0.0
25/01:00pm 24.9 23.8 14.4 52 6.3 E 13 20 7 11 1019.1 1017.8 0.0
25/12:30pm 24.0 21.8 13.2 50 6.4 E 17 24 9 13 1019.4 1018.1 0.0
25/12:00pm 24.4 22.5 15.1 56 5.7 E 19 26 10 14 1019.9 1018.6 0.0
25/11:30am 23.7 22.1 14.9 57 5.3 ENE 17 24 9 13 1020.5 1019.2 0.0
25/11:00am 22.9 20.7 14.5 59 5.0 E 19 28 10 15 1021.1 1019.7 0.0
25/10:30am 22.2 20.0 14.8 63 4.5 ENE 20 30 11 16 1021.6 1020.3 0.0
25/10:00am 21.7 18.2 14.4 63 4.3 E 26 32 14 17 1021.5 1020.2 0.0
25/09:30am 20.7 17.9 14.4 67 3.7 ENE 22 30 12 16 1021.9 1020.6 0.0
25/09:00am 19.9 17.5 14.3 70 3.3 E 20 26 11 14 1022.2 1020.9 0.0
25/08:30am 19.0 17.1 14.1 73 2.9 E 17 20 9 11 1022.3 1021.0 0.0
25/08:00am 18.0 16.4 13.9 77 2.4 E 15 19 8 10 1021.9 1020.6 0.0
25/07:30am 16.2 15.4 14.0 87 1.3 NE 11 13 6 7 1021.8 1020.5 0.0
25/07:00am 14.7 14.0 13.2 91 0.8 NNE 9 11 5 6 1021.4 1020.1 0.0
25/06:30am 14.3 14.9 12.0 86 1.3 CALM 0 9 0 5 1021.0 1019.6 0.0
25/06:00am 14.8 14.0 13.0 89 1.0 SE 9 11 5 6 1020.8 1019.4 0.0
25/05:30am 15.7 14.8 13.7 88 1.1 E 11 13 6 7 1020.5 1019.2 0.0
25/05:00am 15.3 14.6 13.3 88 1.1 E 9 11 5 6 1020.6 1019.3 0.0
25/04:30am 15.8 15.6 13.5 86 1.3 ENE 7 7 4 4 1020.8 1019.4 0.0
25/04:00am 16.3 16.4 13.8 85 1.4 E 6 9 3 5 1020.8 1019.4 0.0
25/03:30am 16.5 15.7 14.0 85 1.4 E 11 13 6 7 1020.4 1019.1 0.0
25/03:00am 16.1 15.3 14.1 88 1.2 ESE 11 13 6 7 1020.5 1019.2 0.0
25/02:30am 16.0 15.8 13.7 86 1.3 E 7 9 4 5 1021.0 1019.6 0.0
25/02:00am 16.5 15.3 14.0 85 1.4 E 13 15 7 8 1021.0 1019.6 0.0
25/01:30am 16.7 15.9 14.0 84 1.6 E 11 13 6 7 1021.4 1020.1 0.0
25/01:00am 17.3 15.8 14.2 82 1.8 E 15 19 8 10 1021.3 1020.0 0.0
25/12:30am 17.6 15.1 14.1 80 2.0 E 20 26 11 14 1021.6 1020.3 0.0
25/12:00am 17.6 16.1 14.3 81 1.9 E 15 19 8 10 1022.0 1020.7 0.0
 
Date/Time
EST
Temp
°C
App
Temp
°C
Dew
Point
°C
Rel
Hum
%
Delta-T
°C
Wind Press
QNH
hPa
Press
MSL
hPa
Rain since
9am
mm
Dir  Spd
km/h
Gust
km/h
Spd
kts
Gust
kts
24/11:30pm 17.6 15.7 14.1 80 2.0 ENE 17 20 9 11 1022.1 1020.8 0.0
24/11:00pm 17.7 15.7 14.0 79 2.1 E 17 20 9 11 1022.3 1021.0 0.0
24/10:30pm 18.0 16.0 13.9 77 2.4 E 17 24 9 13 1022.3 1021.0 0.0
24/10:00pm 18.1 14.7 13.6 75 2.6 E 24 35 13 19 1022.2 1020.9 0.0
24/09:30pm 18.4 14.8 14.1 76 2.5 E 26 37 14 20 1022.2 1020.9 0.0
24/09:00pm 18.3 14.7 14.2 77 2.4 E 26 32 14 17 1022.4 1021.1 0.0
24/08:30pm 17.9 17.1 14.0 78 2.3 E 11 15 6 8 1022.5 1021.2 0.0
24/08:00pm 18.4 17.2 14.1 76 2.5 ESE 13 17 7 9 1022.5 1021.2 0.0
24/07:30pm 19.0 17.8 14.1 73 2.9 ESE 13 20 7 11 1022.0 1020.7 0.0
24/07:00pm 19.8 18.0 14.4 71 3.2 E 17 26 9 14 1021.8 1020.5 0.0
24/06:30pm 20.3 18.5 14.4 69 3.5 E 17 20 9 11 1021.6 1020.3 0.0
24/06:00pm 21.0 18.8 14.4 66 3.9 E 19 22 10 12 1021.8 1020.5 0.0
24/05:30pm 21.4 19.5 14.1 63 4.3 E 17 19 9 10 1021.5 1020.2 0.0
24/05:00pm 21.7 19.8 14.1 62 4.5 E 17 22 9 12 1021.2 1019.9 0.0
24/04:30pm 21.8 18.4 13.7 60 4.8 E 24 30 13 16 1021.1 1019.7 0.0
24/04:00pm 22.3 19.8 14.2 60 4.8 ENE 20 26 11 14 1020.9 1019.5 0.0
24/03:30pm 22.4 19.1 14.0 59 5.0 ENE 24 30 13 16 1020.6 1019.3 0.0
24/03:00pm 23.0 19.8 14.3 58 5.2 E 24 32 13 17 1020.8 1019.4 0.0
24/02:30pm 23.3 20.0 14.0 56 5.5 E 24 33 13 18 1020.6 1019.3 0.0
24/02:00pm 23.4 20.6 14.4 57 5.4 E 22 30 12 16 1020.5 1019.2 0.0
24/01:30pm 23.1 19.8 14.1 57 5.4 E 24 32 13 17 1020.9 1019.5 0.0
24/01:00pm 23.0 19.4 14.3 58 5.2 ESE 26 35 14 19 1021.2 1019.9 0.0
24/12:30pm 23.1 19.0 13.8 55 5.5 ENE 28 37 15 20 1021.7 1020.4 0.0
24/12:00pm 22.9 18.8 13.9 57 5.3 E 28 39 15 21 1022.1 1020.8 0.0
24/11:30am 22.9 18.2 14.2 58 5.2 ENE 32 43 17 23 1022.3 1021.0 0.0
24/11:00am 22.3 17.5 13.9 59 5.0 E 32 43 17 23 1022.6 1021.3 0.0
24/10:30am 23.0 18.8 15.8 64 4.4 E 32 41 17 22 1022.9 1021.6 0.0
24/10:00am 20.9 16.4 14.8 68 3.6 E 32 41 17 22 1023.5 1022.2 0.0
24/09:30am 20.1 15.6 14.9 72 3.1 E 32 39 17 21 1023.5 1022.2 0.0
24/09:00am 19.9 15.9 15.1 74 2.9 E 30 37 16 20 1023.5 1022.2 0.0
24/08:30am 19.0 15.3 14.9 77 2.4 E 28 33 15 18 1023.5 1022.2 0.0
24/08:00am 18.3 15.2 14.6 79 2.2 ESE 24 30 13 16 1023.5 1022.2 0.0
24/07:30am 17.7 15.6 14.6 82 1.8 E 19 24 10 13 1023.2 1021.9 0.0
24/07:00am 17.2 14.5 14.5 84 1.6 ESE 22 28 12 15 1022.8 1021.5 0.0
24/06:30am 16.5 14.3 14.5 88 1.2 ESE 19 22 10 12 1022.7 1021.4 0.0
24/06:00am 16.2 14.8 14.4 89 1.0 ESE 15 20 8 11 1022.6 1021.3 0.0
24/05:30am 16.2 14.4 14.4 89 1.0 ESE 17 20 9 11 1022.3 1021.0 0.0
24/05:00am 16.2 15.0 14.0 87 1.3 ESE 13 19 7 10 1022.0 1020.7 0.0
24/04:30am 16.7 14.4 14.0 84 1.6 ESE 19 24 10 13 1021.8 1020.5 0.0
24/04:00am 17.0 13.8 14.3 84 1.6 E 24 33 13 18 1021.7 1020.4 0.0
24/03:30am 17.2 14.4 14.3 83 1.7 E 22 30 12 16 1021.7 1020.4 0.0
24/03:00am 17.5 13.6 14.4 82 1.8 E 28 39 15 21 1021.7 1020.4 0.0
24/02:30am 17.5 14.1 14.8 84 1.6 E 26 30 14 16 1021.8 1020.5 0.0
24/02:00am 17.8 15.5 14.7 82 1.8 E 20 32 11 17 1021.9 1020.6 0.0
24/01:30am 17.7 15.4 14.6 82 1.8 E 20 30 11 16 1022.2 1020.9 0.0
24/01:00am 17.6 15.3 14.7 83 1.7 E 20 30 11 16 1022.4 1021.1 0.0
24/12:30am 17.7 16.0 14.8 83 1.7 E 17 24 9 13 1022.6 1021.3 0.0
24/12:00am 17.8 15.6 14.9 83 1.7 ENE 20 30 11 16 1022.6 1021.3 0.0
 
Date/Time
EST
Temp
°C
App
Temp
°C
Dew
Point
°C
Rel
Hum
%
Delta-T
°C
Wind Press
QNH
hPa
Press
MSL
hPa
Rain since
9am
mm
Dir  Spd
km/h
Gust
km/h
Spd
kts
Gust
kts
23/11:30pm 17.9 15.6 14.6 81 1.9 E 20 30 11 16 1022.7 1021.4 0.0
23/11:00pm 18.2 15.2 14.7 80 2.1 E 24 35 13 19 1022.9 1021.6 0.0
23/10:30pm 18.5 15.4 14.6 78 2.3 E 24 33 13 18 1023.6 1022.3 0.0
23/10:00pm 18.6 16.2 14.3 76 2.5 E 20 32 11 17 1023.8 1022.5 0.0
23/09:30pm 18.8 15.6 14.3 75 2.6 E 24 32 13 17 1023.7 1022.4 0.0
23/09:00pm 19.0 15.1 14.5 75 2.6 E 28 41 15 22 1023.6 1022.3 0.0
23/08:30pm 19.3 15.5 14.6 74 2.8 E 28 35 15 19 1023.6 1022.3 0.0
23/08:00pm 19.5 16.0 14.5 73 2.9 E 26 37 14 20 1023.6 1022.3 0.0
23/07:30pm 19.5 16.4 14.5 73 3.0 E 24 33 13 18 1023.4 1022.1 0.0
23/07:00pm 19.7 16.5 15.4 76 2.6 E 26 35 14 19 1023.1 1021.8 0.0
23/06:30pm 19.8 18.0 15.9 78 2.4 E 20 32 11 17 1022.9 1021.6 0.0
23/06:00pm 19.7 17.7 15.6 77 2.5 E 20 28 11 15 1022.7 1021.4 0.0
23/05:30pm 20.3 17.5 15.3 73 3.0 E 24 30 13 16 1022.3 1021.0 0.0
23/05:00pm 21.0 17.7 16.0 73 3.0 E 28 39 15 21 1022.0 1020.7 0.0
23/04:30pm 21.3 18.3 15.8 71 3.4 E 26 30 14 16 1021.9 1020.6 0.0
23/04:00pm 21.6 19.1 15.2 67 3.9 E 22 28 12 15 1021.9 1020.6 0.0
23/03:30pm 21.8 19.3 15.2 66 4.0 E 22 30 12 16 1022.0 1020.7 0.0
23/03:00pm 21.8 18.5 14.9 65 4.1 E 26 33 14 18 1022.1 1020.8 0.0
23/02:30pm 22.5 19.2 14.9 62 4.6 ESE 26 39 14 21 1022.0 1020.7 0.0
23/02:00pm 22.9 19.7 15.2 62 4.7 E 26 35 14 19 1022.1 1020.8 0.0
23/01:30pm 22.6 20.1 15.2 63 4.5 E 22 33 12 18 1022.4 1021.1 0.0
23/01:00pm 21.9 18.2 15.0 65 4.1 ESE 28 41 15 22 1022.9 1021.6 0.0
23/12:30pm 21.9 18.3 15.3 66 4.0 E 28 39 15 21 1023.4 1022.1 0.0
23/12:00pm 21.9 18.7 15.3 66 4.0 E 26 33 14 18 1023.8 1022.5 0.0
23/11:30am 21.4 18.0 15.7 70 3.5 ESE 28 33 15 18 1024.0 1022.7 0.0
23/11:00am 21.4 17.4 15.3 68 3.7 ESE 30 37 16 20 1024.4 1023.1 0.0
23/10:30am 21.7 17.2 15.3 67 3.9 ESE 33 43 18 23 1024.6 1023.3 0.0
23/10:00am 22.5 17.1 14.9 62 4.6 E 37 52 20 28 1024.5 1023.2 0.0
23/09:30am 21.3 15.9 14.9 67 3.8 E 37 46 20 25 1024.3 1023.0 0.0
23/09:00am 20.8 16.5 15.8 73 3.0 E 33 41 18 22 1024.4 1023.1 0.0
23/08:30am 19.7 15.5 15.6 77 2.5 E 32 41 17 22 1024.1 1022.8 0.0
23/08:00am 19.5 16.2 16.0 80 2.1 E 28 39 15 21 1024.2 1022.9 0.0
23/07:30am 19.0 16.4 15.9 82 1.9 E 24 32 13 17 1023.9 1022.6 0.0
23/07:00am 18.1 15.0 15.7 86 1.4 E 26 35 14 19 1023.7 1022.4 0.0
23/06:30am 17.5 14.8 15.5 88 1.2 E 24 32 13 17 1023.5 1022.2 0.0
23/06:00am 17.5 14.4 15.5 88 1.2 E 26 33 14 18 1022.9 1021.6 0.0
23/05:30am 17.9 14.8 15.7 87 1.3 ESE 26 33 14 18 1022.7 1021.4 0.0
23/05:00am 17.9 15.3 15.9 88 1.2 E 24 33 13 18 1022.4 1021.1 0.0
23/04:42am 17.8 15.9 15.8 88 1.2 E 20 28 11 15 1022.3 1021.0 0.0
23/04:30am 17.8 15.2 16.0 89 1.1 E 24 32 13 17 1022.2 1020.9 0.0
23/04:00am 18.1 16.3 16.1 88 1.2 E 20 26 11 14 1022.2 1020.9 0.0
23/03:30am 18.0 16.5 16.2 89 1.1 E 19 24 10 13 1022.2 1020.9 0.0
23/03:00am 17.9 16.2 16.2 90 1.0 ESE 20 24 11 13 1022.0 1020.7 0.0
23/02:39am 18.0 16.4 16.5 91 0.9 E 20 26 11 14 1022.3 1021.0 0.0
23/02:30am 17.9 15.5 16.4 91 0.9 E 24 32 13 17 1022.3 1021.0 0.0
23/02:00am 17.9 16.3 16.6 92 0.8 ESE 20 28 11 15 1022.5 1021.2 0.0
23/01:55am 17.9 16.4 16.8 93 0.7 ESE 20 24 11 13 1022.6 1021.3 0.0
23/01:30am 17.7 16.4 16.9 95 0.5 E 19 22 10 12 1022.6 1021.3 0.0
23/01:26am 17.8 17.0 17.0 95 0.5 ESE 17 20 9 11 1022.7 1021.4 0.0
23/01:25am 17.8 17.0 17.0 95 0.5 ESE 17 20 9 11 1022.7 1021.4 0.0
23/01:00am 17.7 17.2 16.9 95 0.5 ESE 15 19 8 10 1023.1 1021.8 0.0
23/12:59am 17.7 17.2 16.9 95 0.5 ESE 15 20 8 11 1023.1 1021.8 0.0
23/12:38am 17.8 16.6 17.0 95 0.5 ESE 19 24 10 13 1023.2 1021.9 0.0
23/12:30am 17.7 16.4 16.9 95 0.5 ESE 19 24 10 13 1023.2 1021.9 0.0
23/12:00am 17.9 17.6 17.3 96 0.4 ESE 15 19 8 10 1023.6 1022.3 0.0
 
Date/Time
EST
Temp
°C
App
Temp
°C
Dew
Point
°C
Rel
Hum
%
Delta-T
°C
Wind Press
QNH
hPa
Press
MSL
hPa
Rain since
9am
mm
Dir  Spd
km/h
Gust
km/h
Spd
kts
Gust
kts
22/11:50pm 17.9 17.6 17.3 96 0.4 ESE 15 19 8 10 1023.5 1022.2 0.0
22/11:30pm 17.9 16.7 17.1 95 0.5 E 19 24 10 13 1023.7 1022.4 0.0
22/11:15pm 18.0 16.7 16.7 92 0.8 ESE 19 24 10 13 1023.6 1022.3 0.0
22/11:00pm 18.4 16.8 16.4 88 1.2 E 20 26 11 14 1023.6 1022.3 0.0
22/10:50pm 18.5 16.8 16.3 87 1.3 E 20 24 11 13 1023.7 1022.4 0.0
22/10:30pm 18.3 16.7 16.1 87 1.3 E 19 24 10 13 1023.6 1022.3 0.0
22/10:28pm 18.3 16.7 16.1 87 1.3 E 19 24 10 13 1023.6 1022.3 0.0
22/10:00pm 18.5 16.9 16.5 88 1.2 ESE 20 32 11 17 1023.5 1022.2 0.0
22/09:38pm 18.6 16.9 16.2 86 1.5 ESE 20 26 11 14 1023.6 1022.3 0.0
22/09:30pm 18.6 16.9 16.2 86 1.5 E 20 24 11 13 1023.5 1022.2 0.0
22/09:00pm 18.6 16.7 15.8 84 1.7 E 20 28 11 15 1023.2 1021.9 0.0
22/08:30pm 19.0 16.7 15.7 81 2.0 E 22 30 12 16 1023.0 1021.7 0.0
22/08:00pm 19.4 17.4 15.5 78 2.3 E 20 30 11 16 1022.9 1021.6 0.0
22/07:30pm 19.6 17.2 15.5 77 2.5 E 22 32 12 17 1022.7 1021.4 0.0
22/07:00pm 19.8 17.3 15.2 75 2.7 E 22 28 12 15 1022.4 1021.1 0.0
22/06:30pm 20.2 17.9 15.6 75 2.8 E 22 32 12 17 1021.8 1020.5 0.0
22/06:00pm 20.9 17.7 15.4 71 3.3 E 26 33 14 18 1021.4 1020.1 0.0
22/05:30pm 21.0 18.4 15.8 72 3.2 E 24 32 13 17 1021.2 1019.9 0.0
22/05:00pm 21.7 18.0 15.1 66 4.0 E 28 35 15 19 1020.8 1019.4 0.0
22/04:30pm 22.3 18.8 15.4 65 4.2 E 28 35 15 19 1020.6 1019.3 0.0
22/04:00pm 23.3 20.1 15.4 61 4.8 E 26 32 14 17 1020.3 1019.0 0.0
22/03:30pm 23.7 20.4 14.9 57 5.3 E 26 30 14 16 1020.1 1018.8 0.0
22/03:00pm 23.4 20.0 14.7 58 5.2 E 26 33 14 18 1020.3 1019.0 0.0
22/02:30pm 24.3 20.5 14.7 55 5.8 ENE 28 37 15 20 1020.3 1019.0 0.0
22/02:00pm 23.5 19.7 14.8 58 5.2 E 28 44 15 24 1020.3 1019.0 0.0

Other formats

Comma delimited format used in spreadsheet applications
http://www.bom.gov.au/fwo/IDQ60801/IDQ60801.94552.axf

JavaScript Object Notation format (JSON) in row-major order
http://www.bom.gov.au/fwo/IDQ60801/IDQ60801.94552.json

Data quality

Most of these data are generated automatically and are frequently updated. Quality checks on data are not normally performed. It is possible for incorrect values to appear. Refer to information at About Latest Weather Observations and please check the disclaimer before using these data.